Time;durP1;ratioP1;P1;durP2;ratioP2;P2;SDS_P1;SDS_P2;PMS_P1;PMS_P2;Temp;Humidity;BMP_temperature;BMP_pressure;BME280_temperature;BME280_humidity;BME280_pressure;Samples;Min_cycle;Max_cycle;Signal;HPM_P1;HPM_P2
2023/06/02 00:01:49;;;;;;;0.35;0.35;;;23.70;49.90;;;24.24;34.22;94685.25;5015008;28;20235;-48
2023/06/02 00:04:17;;;;;;;0.30;0.30;;;23.60;49.70;;;24.17;34.20;94683.97;5014960;28;20203;-47
2023/06/02 00:06:45;;;;;;;0.30;0.30;;;23.60;49.70;;;24.10;34.38;94687.00;5014866;28;20218;-47
2023/06/02 00:09:14;;;;;;;0.35;0.35;;;23.60;49.70;;;24.06;34.14;94688.63;5014812;28;20215;-48
2023/06/02 00:11:41;;;;;;;0.40;0.40;;;23.50;49.60;;;24.01;34.53;94680.63;5015396;28;20197;-47
2023/06/02 00:14:08;;;;;;;0.30;0.30;;;23.50;49.70;;;23.95;34.26;94686.06;5015391;28;20206;-48
2023/06/02 00:16:45;;;;;;;0.47;0.47;;;23.50;49.60;;;23.87;34.24;94681.25;5015021;28;20503;-51
2023/06/02 00:19:13;;;;;;;0.45;0.45;;;23.40;49.60;;;23.82;34.31;94678.63;5014724;28;20270;-50
2023/06/02 00:21:41;;;;;;;0.30;0.30;;;23.40;49.50;;;23.78;34.40;94677.63;5014925;28;20510;-46
2023/06/02 00:24:09;;;;;;;0.40;0.40;;;23.40;49.60;;;23.75;34.63;94686.19;5014677;28;20193;-45
2023/06/02 00:26:37;;;;;;;0.35;0.35;;;23.30;49.80;;;23.73;34.38;94683.81;5015095;28;20268;-46
2023/06/02 00:29:04;;;;;;;0.40;0.40;;;23.30;49.90;;;23.71;34.81;94679.81;5014476;28;20204;-46
2023/06/02 00:31:31;;;;;;;0.38;0.38;;;23.20;50.00;;;23.70;34.55;94679.00;5013489;28;20327;-49
2023/06/02 00:33:58;;;;;;;0.30;0.30;;;23.20;50.00;;;23.69;34.60;94673.94;5013558;28;20205;-45
2023/06/02 00:36:25;;;;;;;0.40;0.40;;;23.20;50.10;;;23.71;34.73;94680.59;5014713;28;20286;-45
2023/06/02 00:38:52;;;;;;;0.50;0.50;;;23.20;50.10;;;23.71;34.53;94677.13;5014253;28;20205;-46
2023/06/02 00:41:20;;;;;;;0.40;0.40;;;23.20;50.20;;;23.69;35.15;94682.75;5013567;28;20209;-45
2023/06/02 00:43:47;;;;;;;0.50;0.50;;;23.10;50.10;;;23.69;35.09;94673.94;5014590;28;20202;-48
2023/06/02 00:46:14;;;;;;;0.40;0.40;;;23.20;50.30;;;23.66;34.71;94678.75;5014575;28;20193;-46
2023/06/02 00:48:41;;;;;;;0.30;0.30;;;23.10;50.20;;;23.64;35.02;94680.94;5013322;28;20342;-50
2023/06/02 00:51:09;;;;;;;0.40;0.40;;;23.10;50.40;;;23.62;35.07;94676.91;5014550;28;20224;-48
2023/06/02 00:53:37;;;;;;;0.32;0.32;;;23.10;50.40;;;23.61;35.09;94676.13;5014261;28;20184;-49
2023/06/02 00:56:05;;;;;;;0.50;0.50;;;23.00;50.40;;;23.59;34.88;94672.91;5013100;28;20220;-50
2023/06/02 00:58:37;;;;;;;0.40;0.40;;;23.00;50.40;;;23.57;35.14;94672.44;4997126;28;20592;-50
2023/06/02 01:01:08;;;;;;;0.40;0.40;;;23.00;50.50;;;23.56;34.90;94678.03;5014762;28;20238;-48
2023/06/02 01:03:37;;;;;;;0.30;0.30;;;23.00;50.60;;;23.55;35.02;94676.47;5014103;28;20612;-46
2023/06/02 01:06:06;;;;;;;0.40;0.40;;;23.00;50.50;;;23.52;35.31;94672.44;5014408;28;20278;-48
2023/06/02 01:08:39;;;;;;;0.38;0.38;;;23.00;50.50;;;23.51;34.95;94668.19;5012957;28;20223;-45
2023/06/02 01:11:07;;;;;;;0.22;0.22;;;22.90;50.50;;;23.49;35.30;94676.47;5013088;28;20189;-46
2023/06/02 01:13:35;;;;;;;0.40;0.40;;;22.90;50.50;;;23.48;35.32;94672.19;4996846;28;20189;-45
2023/06/02 01:16:03;;;;;;;0.40;0.40;;;22.90;50.60;;;23.45;35.26;94675.44;5013912;28;20189;-45
2023/06/02 01:18:35;;;;;;;0.35;0.35;;;22.90;50.70;;;23.41;35.29;94669.06;5012745;28;20205;-45
2023/06/02 01:21:05;;;;;;;0.38;0.38;;;22.90;50.80;;;23.37;35.33;94673.38;5014132;28;20269;-45
2023/06/02 01:23:36;;;;;;;0.38;0.38;;;22.80;50.70;;;23.33;35.38;94669.66;5013921;28;20201;-45
2023/06/02 01:26:08;;;;;;;0.30;0.30;;;22.80;50.70;;;23.30;35.16;94667.53;5012875;28;20260;-45
2023/06/02 01:28:37;;;;;;;0.40;0.40;;;22.80;50.70;;;23.27;35.16;94671.56;5012569;28;20217;-45
2023/06/02 01:31:16;;;;;;;0.30;0.30;;;22.70;50.50;;;23.23;35.19;94678.56;5012549;28;20299;-45
2023/06/02 01:34:10;;;;;;;0.30;0.30;;;22.80;50.90;;;23.17;35.15;94674.31;5013673;28;20189;-45
2023/06/02 01:36:40;;;;;;;0.32;0.32;;;22.70;50.50;;;23.13;35.34;94670.53;5013915;28;20615;-45
2023/06/02 01:39:12;;;;;;;0.40;0.40;;;22.70;50.60;;;23.10;35.38;94669.22;5012644;28;20195;-45
2023/06/02 01:41:44;;;;;;;0.38;0.38;;;22.60;50.60;;;23.06;35.29;94670.06;4996482;28;20200;-47
2023/06/02 01:44:12;;;;;;;0.45;0.45;;;22.60;50.60;;;23.01;35.21;94671.69;5013794;28;20240;-45
2023/06/02 01:46:40;;;;;;;0.40;0.40;;;22.60;51.60;;;22.96;35.52;94668.22;5012498;28;20259;-45
2023/06/02 01:49:15;;;;;;;0.40;0.40;;;22.50;50.60;;;22.89;35.59;94663.19;4996782;28;20202;-48
2023/06/02 01:51:44;;;;;;;0.50;0.50;;;22.50;50.70;;;22.81;35.23;94675.28;5012436;28;20248;-45
2023/06/02 01:54:12;;;;;;;0.40;0.40;;;22.50;50.60;;;22.74;35.88;94673.97;5012365;28;20334;-47
2023/06/02 01:56:39;;;;;;;0.40;0.40;;;22.40;50.60;;;22.66;35.77;94665.44;5012393;28;20209;-46
2023/06/02 01:59:07;;;;;;;0.40;0.40;;;22.40;50.70;;;22.60;35.94;94665.75;5012135;28;20201;-45
2023/06/02 02:01:36;;;;;;;0.40;0.40;;;22.30;50.70;;;22.55;35.55;94666.56;5013210;28;20250;-45
2023/06/02 02:04:03;;;;;;;0.45;0.45;;;22.30;50.70;;;22.48;35.77;94664.16;5013424;28;20207;-47
2023/06/02 02:06:30;;;;;;;0.40;0.40;;;22.20;50.70;;;22.46;35.98;94666.34;5013667;28;20216;-46
2023/06/02 02:09:03;;;;;;;0.40;0.40;;;22.20;50.80;;;22.44;35.79;94667.69;5012539;28;20209;-46
2023/06/02 02:11:30;;;;;;;0.50;0.50;;;22.20;51.00;;;22.42;35.81;94670.59;5012575;28;20185;-50
2023/06/02 02:13:57;;;;;;;0.40;0.40;;;22.10;51.00;;;22.41;35.97;94674.38;5013338;28;20527;-47
2023/06/02 02:16:24;;;;;;;0.40;0.40;;;22.00;50.90;;;22.39;35.87;94666.63;5013063;28;20193;-46
2023/06/02 02:18:52;;;;;;;0.40;0.40;;;22.00;51.10;;;22.41;36.11;94676.22;5012776;28;20201;-49
2023/06/02 02:21:20;;;;;;;0.40;0.40;;;22.00;51.30;;;22.40;36.44;94672.78;5012862;28;20205;-46
2023/06/02 02:23:47;;;;;;;0.30;0.30;;;22.00;51.30;;;22.40;36.33;94678.13;4995793;28;20291;-49
2023/06/02 02:26:16;;;;;;;0.38;0.38;;;22.00;51.50;;;22.39;35.99;94674.63;5011911;28;20540;-50
2023/06/02 02:28:43;;;;;;;0.40;0.40;;;22.00;51.40;;;22.41;36.14;94673.56;5012594;28;20233;-47
2023/06/02 02:31:10;;;;;;;0.40;0.40;;;22.00;51.60;;;22.41;36.20;94670.88;5012526;28;20307;-49
2023/06/02 02:33:39;;;;;;;0.40;0.40;;;22.00;51.60;;;22.40;36.23;94670.09;5011802;28;20290;-50
2023/06/02 02:36:08;;;;;;;0.30;0.30;;;22.00;51.60;;;22.40;36.14;94667.44;5011821;28;20197;-51
2023/06/02 02:38:37;;;;;;;0.40;0.40;;;21.90;51.60;;;22.39;36.64;94671.16;5011758;28;20209;-50
2023/06/02 02:41:05;;;;;;;0.50;0.50;;;21.90;51.60;;;22.37;36.46;94673.28;5012288;28;20211;-47
2023/06/02 02:43:32;;;;;;;0.30;0.30;;;21.90;51.50;;;22.32;36.41;94675.97;5012659;28;20194;-46
2023/06/02 02:45:59;;;;;;;0.40;0.40;;;21.90;51.50;;;22.26;36.48;94679.72;5011650;28;20212;-49
2023/06/02 02:48:28;;;;;;;0.47;0.47;;;21.90;51.50;;;22.22;36.66;94672.25;5012457;28;20227;-46
2023/06/02 02:50:55;;;;;;;0.30;0.30;;;21.90;51.50;;;22.18;36.66;94676.53;5011397;28;20202;-51
2023/06/02 02:53:24;;;;;;;0.40;0.40;;;21.80;51.40;;;22.14;36.97;94664.00;5011513;28;20202;-49
2023/06/02 02:55:52;;;;;;;0.50;0.50;;;21.80;51.40;;;22.04;36.47;94673.63;5011498;28;20197;-44
2023/06/02 02:58:19;;;;;;;0.40;0.40;;;21.80;51.50;;;21.91;36.88;94677.66;5011559;28;20204;-44
2023/06/02 03:00:47;;;;;;;0.50;0.50;;;21.80;51.40;;;21.79;36.62;94684.31;5011293;28;20625;-44
2023/06/02 03:03:15;;;;;;;0.40;0.40;;;21.70;51.30;;;21.63;36.85;94673.69;5012315;28;20708;-44
2023/06/02 03:05:42;;;;;;;0.50;0.50;;;21.60;51.40;;;21.53;36.97;94679.78;5012282;28;20518;-44
2023/06/02 03:08:12;;;;;;;0.40;0.40;;;21.50;51.50;;;21.45;37.38;94677.66;5011274;28;20235;-44
2023/06/02 03:10:40;;;;;;;0.40;0.40;;;21.50;51.60;;;21.36;37.56;94671.22;5011321;28;20227;-44
2023/06/02 03:13:07;;;;;;;0.50;0.50;;;21.40;51.60;;;21.27;37.33;94681.63;5011236;28;20287;-44
2023/06/02 03:15:34;;;;;;;0.40;0.40;;;21.30;51.70;;;21.20;37.65;94678.41;5011209;28;20203;-45
2023/06/02 03:18:03;;;;;;;0.40;0.40;;;21.20;51.90;;;21.14;37.68;94684.81;5011481;28;20265;-45
2023/06/02 03:20:31;;;;;;;0.50;0.50;;;21.20;52.10;;;21.06;38.04;94681.59;5013070;28;20202;-45
2023/06/02 03:22:59;;;;;;;0.40;0.40;;;21.00;52.00;;;20.99;38.12;94686.38;5014683;28;20208;-44
2023/06/02 03:25:27;;;;;;;0.40;0.40;;;21.00;52.20;;;20.95;37.62;94691.41;5014659;28;20206;-46
2023/06/02 03:27:55;;;;;;;0.40;0.40;;;20.90;52.30;;;20.93;37.84;94687.41;5014570;28;20356;-45
2023/06/02 03:30:23;;;;;;;0.40;0.40;;;20.90;52.40;;;20.90;38.27;94690.63;5014217;28;20319;-44
2023/06/02 03:32:55;;;;;;;0.50;0.50;;;20.80;52.50;;;20.86;38.21;94690.34;5014552;28;20195;-44
2023/06/02 03:35:22;;;;;;;0.50;0.50;;;20.80;52.60;;;20.84;37.99;94689.00;5015392;28;20265;-44
2023/06/02 03:37:49;;;;;;;0.60;0.60;;;20.70;52.70;;;20.81;38.47;94694.84;5014449;28;20202;-44
2023/06/02 03:40:16;;;;;;;0.47;0.47;;;20.70;52.90;;;20.76;38.59;94699.13;5014257;28;20201;-44
2023/06/02 03:42:43;;;;;;;0.50;0.50;;;20.70;52.90;;;20.74;38.40;94695.91;5014790;28;20687;-44
2023/06/02 03:45:11;;;;;;;0.40;0.40;;;20.60;52.90;;;20.73;38.28;94699.63;5014275;28;20218;-45
2023/06/02 03:47:41;;;;;;;0.50;0.50;;;20.60;53.00;;;20.73;38.74;94694.28;5015035;28;20251;-45
2023/06/02 03:50:12;;;;;;;0.40;0.40;;;20.50;53.00;;;20.72;38.51;94700.69;5015020;28;20191;-45
2023/06/02 03:52:40;;;;;;;0.40;0.40;;;20.50;54.20;;;20.71;38.35;94691.03;5014235;28;20205;-45
2023/06/02 03:55:08;;;;;;;0.60;0.60;;;20.50;53.10;;;20.70;38.31;94702.78;5015371;28;20201;-46
2023/06/02 03:57:37;;;;;;;0.40;0.40;;;20.50;53.20;;;20.64;38.46;94699.28;5014183;28;20298;-48
2023/06/02 04:00:08;;;;;;;0.47;0.47;;;20.50;53.20;;;20.62;38.61;94704.06;5014901;28;20216;-45
2023/06/02 04:02:40;;;;;;;0.40;0.40;;;20.50;53.30;;;20.58;39.11;94711.00;5015615;28;20185;-45
2023/06/02 04:05:11;;;;;;;0.50;0.50;;;20.50;53.30;;;20.59;38.77;94714.44;5014496;28;20212;-47
2023/06/02 04:07:40;;;;;;;0.50;0.50;;;20.40;53.30;;;20.58;38.45;94713.66;5013990;28;20239;-44
2023/06/02 04:10:07;;;;;;;0.40;0.40;;;20.40;53.30;;;20.62;38.62;94721.94;5015005;28;20214;-48
2023/06/02 04:12:35;;;;;;;0.40;0.40;;;20.40;53.50;;;20.63;38.46;94715.56;5013925;28;20222;-46
2023/06/02 04:15:03;;;;;;;0.40;0.40;;;20.40;53.60;;;20.68;38.62;94720.91;5014425;28;20522;-44
2023/06/02 04:17:31;;;;;;;0.43;0.43;;;20.40;53.60;;;20.72;38.60;94722.00;5013815;28;20207;-48
2023/06/02 04:19:58;;;;;;;0.45;0.45;;;20.40;53.80;;;20.75;39.04;94728.66;5014590;28;20196;-45
2023/06/02 04:22:25;;;;;;;0.40;0.40;;;20.50;54.00;;;20.77;38.86;94727.34;5013778;28;20299;-45
2023/06/02 04:24:52;;;;;;;0.38;0.38;;;20.50;54.00;;;20.82;39.04;94728.44;5013697;28;20541;-45
2023/06/02 04:27:20;;;;;;;0.50;0.50;;;20.50;54.00;;;20.83;39.02;94733.50;5013705;28;20274;-45
2023/06/02 04:29:47;;;;;;;0.55;0.55;;;20.50;54.00;;;20.86;38.90;94735.66;5013206;28;20224;-48
2023/06/02 04:32:14;;;;;;;0.40;0.40;;;20.50;54.10;;;20.88;39.18;94728.19;5014678;28;20181;-45
2023/06/02 04:34:43;;;;;;;0.43;0.43;;;20.60;54.10;;;20.89;39.01;94732.47;5013568;28;20601;-44
2023/06/02 04:37:11;;;;;;;0.40;0.40;;;20.60;54.20;;;20.92;38.68;94729.28;5013532;28;20206;-46
2023/06/02 04:39:38;;;;;;;0.40;0.40;;;20.60;54.20;;;20.93;39.25;94733.56;5013502;28;20227;-47
2023/06/02 04:42:07;;;;;;;0.40;0.40;;;20.60;54.10;;;20.97;39.03;94741.03;5013497;28;20291;-49
2023/06/02 04:44:35;;;;;;;0.50;0.50;;;20.60;54.20;;;20.95;38.92;94744.75;5013994;28;20243;-49
2023/06/02 04:47:02;;;;;;;0.43;0.43;;;20.60;54.10;;;20.99;39.29;94753.03;5014617;28;20684;-46
2023/06/02 04:49:29;;;;;;;0.40;0.40;;;20.70;54.20;;;21.01;38.81;94750.91;5013421;28;20236;-44
2023/06/02 04:51:57;;;;;;;0.40;0.40;;;20.70;54.30;;;21.03;39.10;94746.13;5013152;28;20226;-44
2023/06/02 04:54:24;;;;;;;0.50;0.50;;;20.80;54.30;;;21.04;38.75;94742.38;5013292;28;20207;-44
2023/06/02 04:56:55;;;;;;;0.50;0.50;;;20.70;55.00;;;21.05;39.43;94738.66;5013309;28;20207;-44
2023/06/02 04:59:23;;;;;;;0.47;0.47;;;20.80;54.30;;;21.06;39.04;94748.25;5013264;28;20288;-44
2023/06/02 05:01:51;;;;;;;0.40;0.40;;;20.80;54.40;;;21.07;39.40;94746.41;5012991;28;20204;-44
2023/06/02 05:04:19;;;;;;;0.40;0.40;;;20.80;54.30;;;21.09;38.96;94746.91;5013160;28;20203;-44
2023/06/02 05:06:47;;;;;;;0.40;0.40;;;20.80;54.40;;;21.11;39.34;94731.47;5013133;28;20652;-44
2023/06/02 05:09:15;;;;;;;0.50;0.50;;;20.80;54.50;;;21.13;38.98;94736.53;5014417;28;20212;-44
2023/06/02 05:11:42;;;;;;;0.50;0.50;;;20.80;54.40;;;21.15;39.17;94737.88;5012926;28;20200;-44
2023/06/02 05:14:10;;;;;;;0.40;0.40;;;20.90;54.50;;;21.15;39.03;94737.09;5013033;28;20204;-44
2023/06/02 05:16:46;;;;;;;0.40;0.40;;;20.90;54.50;;;21.15;39.47;94745.09;5014178;28;20274;-44
2023/06/02 05:19:13;;;;;;;0.43;0.43;;;20.90;54.60;;;21.15;39.29;94745.88;4997399;28;20702;-44
2023/06/02 05:21:40;;;;;;;0.30;0.30;;;20.90;54.40;;;21.17;39.00;94740.28;5013626;28;20201;-44
2023/06/02 05:24:07;;;;;;;0.38;0.38;;;20.90;54.40;;;21.18;39.45;94737.34;5012865;28;20207;-46
2023/06/02 05:26:34;;;;;;;0.40;0.40;;;20.90;54.40;;;21.19;39.17;94741.63;5012797;28;20209;-44
2023/06/02 05:29:01;;;;;;;0.40;0.40;;;20.90;54.40;;;21.21;39.33;94741.38;5012725;28;20221;-44
2023/06/02 05:31:29;;;;;;;0.40;0.40;;;21.00;54.60;;;21.22;39.18;94750.97;5012550;28;20264;-44
2023/06/02 05:33:59;;;;;;;0.40;0.40;;;21.00;54.70;;;21.24;39.16;94762.19;5013679;28;20199;-42
2023/06/02 05:36:26;;;;;;;0.40;0.40;;;21.00;54.70;;;21.26;39.55;94758.19;5012682;28;20204;-43
2023/06/02 05:38:53;;;;;;;0.40;0.40;;;21.00;54.70;;;21.28;39.81;94758.72;5012620;28;20244;-42
2023/06/02 05:41:21;;;;;;;0.40;0.40;;;21.00;54.80;;;21.31;39.38;94753.91;5012402;28;20227;-42
2023/06/02 05:43:49;;;;;;;0.40;0.40;;;21.00;54.80;;;21.33;39.85;94749.91;5011843;28;20228;-43
2023/06/02 05:46:17;;;;;;;0.50;0.50;;;21.10;55.10;;;21.36;39.48;94751.25;5013703;28;20547;-43
2023/06/02 05:48:47;;;;;;;0.50;0.50;;;21.10;55.20;;;21.38;39.54;94754.47;5012420;28;20221;-43
2023/06/02 05:51:15;;;;;;;0.50;0.50;;;21.10;55.10;;;21.41;39.87;94749.41;5012277;28;20647;-47
2023/06/02 05:53:42;;;;;;;0.50;0.50;;;21.10;55.20;;;21.45;39.92;94749.69;5012398;28;20535;-44
2023/06/02 05:56:10;;;;;;;0.47;0.47;;;21.20;55.30;;;21.48;39.63;94743.81;5013334;28;20586;-45
2023/06/02 05:58:40;;;;;;;0.50;0.50;;;21.20;55.20;;;21.50;39.47;94743.56;5013400;28;20251;-44
2023/06/02 06:01:09;;;;;;;0.30;0.30;;;21.20;55.20;;;21.52;39.51;94742.22;5012127;28;20203;-44
2023/06/02 06:03:36;;;;;;;0.30;0.30;;;21.30;55.10;;;21.56;39.40;94745.16;5012253;28;20231;-48
2023/06/02 06:06:05;;;;;;;0.50;0.50;;;21.30;55.00;;;21.58;39.73;94743.03;5013760;28;20247;-44
2023/06/02 06:08:32;;;;;;;0.40;0.40;;;21.30;55.00;;;21.59;39.84;94741.97;5012186;28;20733;-47
2023/06/02 06:11:00;;;;;;;0.43;0.43;;;21.30;55.10;;;21.61;39.75;94745.19;5012033;28;20555;-47
2023/06/02 06:13:27;;;;;;;0.43;0.43;;;21.40;55.20;;;21.63;39.75;94743.06;5012081;28;20239;-45
2023/06/02 06:15:55;;;;;;;0.40;0.40;;;21.40;55.20;;;21.63;39.51;94732.41;5012084;28;20200;-45
2023/06/02 06:18:22;;;;;;;0.40;0.40;;;21.40;55.00;;;21.64;39.45;94743.88;5012180;28;20210;-45
2023/06/02 06:20:51;;;;;;;0.40;0.40;;;21.40;55.10;;;21.64;39.53;94731.34;5011808;28;20345;-44
2023/06/02 06:23:18;;;;;;;0.30;0.30;;;21.40;55.00;;;21.67;39.35;94735.34;5012763;28;20297;-43
2023/06/02 06:25:46;;;;;;;0.40;0.40;;;21.40;55.00;;;21.65;39.82;94738.25;5011900;28;20206;-49
2023/06/02 06:28:14;;;;;;;0.40;0.40;;;21.40;55.70;;;21.68;39.86;94745.75;5011766;28;20539;-46
2023/06/02 06:30:45;;;;;;;0.30;0.30;;;21.40;55.10;;;21.68;39.69;94753.75;5011512;28;20253;-47
2023/06/02 06:33:12;;;;;;;0.50;0.50;;;21.50;55.20;;;21.69;39.47;94750.00;5011821;28;20292;-44
2023/06/02 06:35:39;;;;;;;0.50;0.50;;;21.50;55.20;;;21.71;39.50;94755.88;5011886;28;20203;-45
2023/06/02 06:38:08;;;;;;;0.32;0.32;;;21.50;55.20;;;21.74;39.67;94759.91;5011781;28;20239;-42
2023/06/02 06:40:36;;;;;;;0.40;0.40;;;21.50;55.20;;;21.77;39.80;94758.56;5011568;28;20284;-44
2023/06/02 06:43:03;;;;;;;0.40;0.40;;;21.50;55.40;;;21.80;39.78;94760.69;4995487;28;20205;-44
2023/06/02 06:45:55;;;;;;;0.40;0.40;;;21.50;55.30;;;21.81;39.66;94760.41;5011683;28;20617;-43
2023/06/02 06:48:23;;;;;;;0.50;0.50;;;21.50;55.40;;;21.83;39.78;94763.63;4995427;28;20230;-44
2023/06/02 06:50:50;;;;;;;0.50;0.50;;;21.60;55.70;;;21.87;40.04;94767.38;5012371;28;20271;-42
2023/06/02 06:53:18;;;;;;;0.40;0.40;;;21.60;55.70;;;21.90;39.91;94774.06;5011420;28;20232;-42
2023/06/02 06:55:46;;;;;;;0.40;0.40;;;21.60;55.80;;;21.92;39.82;94771.91;5011799;28;20565;-44
2023/06/02 06:58:14;;;;;;;0.40;0.40;;;21.70;55.80;;;21.95;40.17;94768.72;5011484;28;20298;-44
2023/06/02 07:00:41;;;;;;;0.40;0.40;;;21.70;55.90;;;21.98;39.83;94770.81;5012776;28;20289;-44
2023/06/02 07:03:08;;;;;;;0.47;0.47;;;21.70;55.90;;;22.01;39.95;94769.53;5012183;28;20189;-43
2023/06/02 07:05:35;;;;;;;0.40;0.40;;;21.70;55.90;;;22.04;40.60;94771.63;5012371;28;20205;-44
2023/06/02 07:08:03;;;;;;;0.35;0.35;;;21.80;56.00;;;22.07;40.01;94771.13;5011430;28;20190;-44
2023/06/02 07:10:30;;;;;;;0.40;0.40;;;21.80;56.10;;;22.09;40.28;94765.50;5011358;28;20218;-44
2023/06/02 07:12:57;;;;;;;0.30;0.30;;;21.80;56.00;;;22.12;39.88;94762.28;5011913;28;20194;-42
2023/06/02 07:15:24;;;;;;;0.40;0.40;;;21.80;55.90;;;22.14;40.26;94774.31;5012489;28;20298;-44
2023/06/02 07:17:51;;;;;;;0.40;0.40;;;21.80;55.90;;;22.15;39.85;94762.53;5027996;28;20198;-44
2023/06/02 07:20:18;;;;;;;0.40;0.40;;;21.90;56.00;;;22.18;39.93;94764.69;5012195;28;20202;-43
2023/06/02 07:22:45;;;;;;;0.43;0.43;;;21.90;55.90;;;22.20;39.78;94761.75;5011910;28;20290;-43
2023/06/02 07:25:13;;;;;;;0.40;0.40;;;21.90;55.90;;;22.22;40.04;94767.63;5012330;28;20189;-44
2023/06/02 07:27:40;;;;;;;0.38;0.38;;;21.90;55.90;;;22.25;40.49;94776.97;5012401;28;20203;-44
2023/06/02 07:30:08;;;;;;;0.50;0.50;;;22.00;56.00;;;22.25;40.24;94769.75;5012095;28;20692;-44
2023/06/02 07:32:35;;;;;;;0.30;0.30;;;22.00;56.00;;;22.27;39.97;94767.63;5011950;28;20184;-45
2023/06/02 07:35:03;;;;;;;0.30;0.30;;;22.00;56.00;;;22.30;40.29;94764.41;5011993;28;20282;-43
2023/06/02 07:37:30;;;;;;;0.40;0.40;;;22.00;56.00;;;22.31;40.37;94771.34;5011894;28;20580;-43
2023/06/02 07:39:57;;;;;;;0.40;0.40;;;22.00;56.00;;;22.33;39.83;94769.22;5012093;28;20223;-44
2023/06/02 07:42:24;;;;;;;0.30;0.30;;;22.10;56.10;;;22.37;40.35;94769.47;5011742;28;20227;-43
2023/06/02 07:44:52;;;;;;;0.30;0.30;;;22.10;56.10;;;22.41;40.34;94772.44;5012352;28;20640;-44
2023/06/02 07:47:19;;;;;;;0.38;0.38;;;22.10;56.10;;;22.43;40.26;94764.97;5011984;28;20294;-44
2023/06/02 07:49:46;;;;;;;0.40;0.40;;;22.10;56.10;;;22.44;40.20;94764.69;5011981;28;20221;-45
2023/06/02 07:52:13;;;;;;;0.30;0.30;;;22.10;56.10;;;22.47;39.88;94768.69;5010732;28;20204;-44
2023/06/02 07:54:42;;;;;;;0.38;0.38;;;22.20;56.40;;;22.49;40.27;94770.00;5011193;28;20617;-43
2023/06/02 07:57:09;;;;;;;0.40;0.40;;;22.20;56.20;;;22.52;39.98;94764.13;5011017;28;20499;-45
2023/06/02 07:59:37;;;;;;;0.30;0.30;;;22.20;56.10;;;22.54;40.45;94772.69;5010789;28;20296;-44
2023/06/02 08:02:05;;;;;;;0.50;0.50;;;22.30;56.30;;;22.57;40.05;94766.00;5011659;28;20540;-44
2023/06/02 08:04:32;;;;;;;0.40;0.40;;;22.20;56.10;;;22.58;40.21;94764.91;5011478;28;20637;-44
2023/06/02 08:07:00;;;;;;;0.40;0.40;;;22.30;56.20;;;22.61;40.36;94767.03;5014218;28;20228;-44
2023/06/02 08:09:27;;;;;;;0.30;0.30;;;22.30;56.10;;;22.64;40.25;94768.38;5015099;28;20238;-45
2023/06/02 08:11:54;;;;;;;0.32;0.32;;;22.30;56.10;;;22.66;40.02;94766.25;5014114;28;20265;-46
2023/06/02 08:14:21;;;;;;;0.30;0.30;;;22.40;56.20;;;22.70;40.09;94767.28;5014789;28;20188;-48
2023/06/02 08:16:50;;;;;;;0.32;0.32;;;22.40;56.10;;;22.71;40.09;94763.53;5015115;28;20200;-46
2023/06/02 08:19:25;;;;;;;0.30;0.30;;;22.40;56.10;;;22.74;39.88;94763.00;5014805;28;20669;-46
2023/06/02 08:21:53;;;;;;;0.30;0.30;;;22.40;56.10;;;22.77;40.42;94770.47;5014910;28;20193;-45
2023/06/02 08:24:24;;;;;;;0.30;0.30;;;22.50;56.20;;;22.81;40.19;94770.72;5014679;28;20193;-44
2023/06/02 08:26:54;;;;;;;0.40;0.40;;;22.50;56.10;;;22.83;40.09;94771.28;5015029;28;20194;-45
2023/06/02 08:29:23;;;;;;;0.30;0.30;;;22.50;56.10;;;22.86;40.09;94778.72;5013753;28;20240;-44
2023/06/02 08:31:51;;;;;;;0.38;0.38;;;22.50;56.10;;;22.89;40.18;94772.03;5014841;28;20235;-44
2023/06/02 08:34:20;;;;;;;0.38;0.38;;;22.60;56.10;;;22.91;40.26;94770.72;5014479;28;20204;-45
2023/06/02 08:36:57;;;;;;;0.40;0.40;;;22.60;56.20;;;22.94;40.21;94777.38;5014630;28;20182;-45
2023/06/02 08:39:25;;;;;;;0.50;0.50;;;22.70;56.20;;;22.95;40.16;94777.09;5014811;28;20191;-44
2023/06/02 08:42:01;;;;;;;0.40;0.40;;;22.70;56.20;;;22.99;40.06;94785.38;5014276;28;20189;-45
2023/06/02 08:44:29;;;;;;;0.38;0.38;;;22.70;56.20;;;23.02;40.11;94782.16;5013652;28;20223;-45
2023/06/02 08:46:57;;;;;;;0.30;0.30;;;22.70;56.20;;;23.03;40.34;94773.88;5014349;28;20279;-45
2023/06/02 08:49:27;;;;;;;0.30;0.30;;;22.70;56.20;;;23.06;40.15;94777.06;5013679;28;20659;-45
2023/06/02 08:52:11;;;;;;;0.40;0.40;;;22.70;56.20;;;23.09;40.13;94776.50;5013437;28;20267;-45
2023/06/02 08:54:40;;;;;;;0.50;0.50;;;22.80;56.20;;;23.10;40.21;94778.13;5014305;28;20185;-44
2023/06/02 08:57:09;;;;;;;0.40;0.40;;;22.80;56.10;;;23.12;40.17;94782.13;5014309;28;20220;-44
2023/06/02 08:59:37;;;;;;;0.30;0.30;;;22.80;57.40;;;23.15;40.12;94770.06;5013586;28;20606;-45
2023/06/02 09:02:04;;;;;;;0.30;0.30;;;22.90;56.20;;;23.18;40.30;94769.56;5014030;28;20197;-45
2023/06/02 09:04:31;;;;;;;0.30;0.30;;;22.90;56.30;;;23.21;39.84;94776.22;5014126;28;20195;-44
2023/06/02 09:07:17;;;;;;;0.40;0.40;;;22.90;56.30;;;23.22;40.09;94770.59;5014098;28;20209;-44
2023/06/02 09:09:51;;;;;;;0.40;0.40;;;22.90;56.30;;;23.26;40.37;94773.53;5013959;28;20212;-45
2023/06/02 09:12:19;;;;;;;0.30;0.30;;;22.90;56.30;;;23.28;40.02;94774.06;5013123;28;20247;-45
2023/06/02 09:14:49;;;;;;;0.30;0.30;;;23.00;56.20;;;23.31;40.02;94770.81;5013987;28;20195;-45
2023/06/02 09:17:34;;;;;;;0.35;0.35;;;23.00;56.10;;;23.32;39.99;94773.22;5012376;28;20199;-45
2023/06/02 09:20:09;;;;;;;0.40;0.40;;;23.00;56.00;;;23.36;40.07;94778.81;5014220;28;20513;-45
2023/06/02 09:22:52;;;;;;;0.35;0.35;;;23.00;56.00;;;23.38;40.12;94778.56;5013993;28;20286;-45
2023/06/02 09:25:28;;;;;;;0.30;0.30;;;23.10;56.00;;;23.41;40.15;94784.16;5014396;28;20202;-44
2023/06/02 09:27:57;;;;;;;0.30;0.30;;;23.10;56.00;;;23.43;39.82;94779.31;5014350;28;20669;-44
2023/06/02 09:30:26;;;;;;;0.30;0.30;;;23.20;57.40;;;23.46;40.00;94785.97;5013542;28;20617;-50
2023/06/02 09:32:59;;;;;;;0.40;0.40;;;23.20;56.10;;;23.47;39.90;94780.38;5014249;28;20189;-49
2023/06/02 09:35:44;;;;;;;0.20;0.20;;;23.20;57.20;;;23.49;39.60;94786.22;5013641;28;20262;-47
2023/06/02 09:38:15;;;;;;;0.40;0.40;;;23.20;55.70;;;23.52;39.94;94774.16;5014004;28;20216;-50
2023/06/02 09:40:43;;;;;;;0.30;0.30;;;23.20;55.70;;;23.56;39.71;94777.91;5013853;28;20186;-47
2023/06/02 09:43:15;;;;;;;0.30;0.30;;;23.20;55.70;;;23.59;39.68;94765.84;5013787;28;20201;-47
2023/06/02 09:46:03;;;;;;;0.40;0.40;;;23.30;55.90;;;23.60;39.91;94770.13;5013525;28;20651;-48
2023/06/02 09:48:32;;;;;;;0.30;0.30;;;23.30;57.10;;;23.66;39.55;94779.72;5014051;28;20200;-49
2023/06/02 09:50:59;;;;;;;0.30;0.30;;;23.30;55.90;;;23.70;39.62;94774.63;5013105;28;20704;-47
2023/06/02 09:53:27;;;;;;;0.30;0.30;;;23.40;56.10;;;23.73;40.00;94769.50;5013615;28;20201;-51
2023/06/02 09:55:54;;;;;;;0.30;0.30;;;23.40;56.10;;;23.76;39.86;94773.50;5013005;28;20239;-50
2023/06/02 09:58:21;;;;;;;0.30;0.30;;;23.40;56.10;;;23.79;39.58;94778.28;5013309;28;20194;-51
2023/06/02 10:00:48;;;;;;;0.22;0.22;;;23.40;56.00;;;23.82;39.94;94773.16;5013115;28;20252;-48
2023/06/02 10:03:16;;;;;;;0.30;0.30;;;23.50;56.20;;;23.85;39.49;94774.47;5013749;28;20254;-52
2023/06/02 10:05:58;;;;;;;0.30;0.30;;;23.50;56.00;;;23.87;39.79;94780.38;5013115;28;20643;-49
2023/06/02 10:08:39;;;;;;;0.40;0.40;;;23.50;55.90;;;23.90;39.50;94782.50;4996491;28;20190;-51
2023/06/02 10:11:18;;;;;;;0.38;0.38;;;23.60;56.00;;;23.94;39.90;94783.56;4996689;28;20250;-51
2023/06/02 10:14:26;;;;;;;0.30;0.30;;;23.60;56.10;;;23.94;39.76;94780.88;5013123;28;20214;-47
2023/06/02 10:17:23;;;;;;;0.30;0.30;;;23.60;55.90;;;23.96;39.61;94785.94;5013077;28;20214;-48
2023/06/02 10:19:50;;;;;;;0.30;0.30;;;23.70;55.90;;;24.01;39.51;94780.56;5013326;28;20196;-47
2023/06/02 10:22:48;;;;;;;0.30;0.30;;;23.70;55.80;;;24.04;39.50;94785.34;5011989;28;20714;-47
2023/06/02 10:26:10;;;;;;;0.35;0.35;;;23.70;55.80;;;24.06;39.59;94782.41;5012872;28;20196;-47
2023/06/02 10:28:38;;;;;;;0.40;0.40;;;23.70;55.60;;;24.10;39.68;94783.44;4994110;28;20214;-47
2023/06/02 10:31:11;;;;;;;0.47;0.47;;;23.80;55.70;;;24.13;39.34;94782.88;5011517;28;20246;-47